Time;durP1;ratioP1;P1;durP2;ratioP2;P2;SDS_P1;SDS_P2;PMS_P1;PMS_P2;Temp;Humidity;BMP_temperature;BMP_pressure;BME280_temperature;BME280_humidity;BME280_pressure;Samples;Min_cycle;Max_cycle;Signal;HPM_P1;HPM_P2
2024/04/09 00:02:04;;;;;;;26.55;3.80;;;;;;;19.29;100.00;97618.75;5233040;27;20011;-81
2024/04/09 00:04:29;;;;;;;31.58;3.67;;;;;;;19.36;100.00;97611.00;5232973;27;20004;-81
2024/04/09 00:06:55;;;;;;;29.27;3.55;;;;;;;19.32;100.00;97592.66;5228217;27;20003;-80
2024/04/09 00:09:23;;;;;;;22.73;4.05;;;;;;;19.43;100.00;97622.44;5230077;27;20002;-81
2024/04/09 00:11:53;;;;;;;31.33;3.90;;;;;;;19.42;100.00;97615.31;5229310;27;20058;-80
2024/04/09 00:14:18;;;;;;;32.35;3.42;;;;;;;19.40;100.00;97631.25;5222234;27;20215;-81
2024/04/09 00:16:44;;;;;;;26.98;3.90;;;;;;;19.18;100.00;97639.97;5223995;27;19991;-80
2024/04/09 00:19:11;;;;;;;26.15;3.50;;;;;;;19.00;100.00;97640.66;5234871;27;20003;-80
2024/04/09 00:21:36;;;;;;;27.02;3.50;;;;;;;18.88;100.00;97638.28;5231578;27;20011;-80
2024/04/09 00:24:02;;;;;;;35.50;4.15;;;;;;;18.77;100.00;97637.53;5226855;27;20039;-80
2024/04/09 00:26:29;;;;;;;29.98;3.90;;;;;;;18.70;100.00;97634.25;5233241;27;19996;-80
2024/04/09 00:28:54;;;;;;;26.92;4.43;;;;;;;18.59;100.00;97639.00;5234897;27;20011;-80
2024/04/09 00:31:24;;;;;;;29.63;4.32;;;;;;;18.49;100.00;97630.84;5227047;27;20234;-80
2024/04/09 00:33:51;;;;;;;24.02;3.67;;;;;;;18.28;100.00;97635.63;5229250;27;19995;-80
2024/04/09 00:36:17;;;;;;;28.15;5.05;;;;;;;17.94;100.00;97625.38;5231841;27;20003;-80
2024/04/09 00:38:46;;;;;;;34.47;5.47;;;;;;;17.77;100.00;97627.59;5225194;27;20006;-80
2024/04/09 00:41:15;;;;;;;22.95;3.58;;;;;;;17.67;100.00;97631.19;5231010;27;20003;-80
2024/04/09 00:43:41;;;;;;;35.58;4.18;;;;;;;17.62;100.00;97652.25;5232696;27;20056;-80
2024/04/09 00:46:07;;;;;;;31.40;4.38;;;;;;;17.52;100.00;97639.44;5227335;27;20015;-80
2024/04/09 00:48:37;;;;;;;23.63;4.32;;;;;;;17.36;100.00;97629.63;5231588;27;20096;-80
2024/04/09 00:51:04;;;;;;;29.05;4.05;;;;;;;17.40;100.00;97636.19;5229175;27;20011;-80
2024/04/09 00:53:32;;;;;;;31.90;3.88;;;;;;;17.40;100.00;97647.13;5237656;27;20004;-81
2024/04/09 00:55:58;;;;;;;26.73;3.38;;;;;;;17.32;100.00;97629.38;5225684;27;20096;-80
2024/04/09 00:58:24;;;;;;;20.17;3.55;;;;;;;17.31;100.00;97633.19;5223668;27;20058;-81
2024/04/09 01:00:50;;;;;;;29.17;3.40;;;;;;;17.35;100.00;97638.94;5227531;27;20185;-81
2024/04/09 01:03:15;;;;;;;36.83;3.95;;;;;;;17.29;100.00;97635.34;5235861;27;20006;-80
2024/04/09 01:05:41;;;;;;;24.25;3.63;;;;;;;17.13;100.00;97640.03;5229093;27;20007;-81
2024/04/09 01:08:06;;;;;;;29.85;3.83;;;;;;;16.91;100.00;97620.38;5231780;27;20002;-80
2024/04/09 01:10:32;;;;;;;21.77;3.90;;;;;;;16.96;100.00;97647.69;5227783;27;19991;-81
2024/04/09 01:13:00;;;;;;;34.13;4.15;;;;;;;16.81;100.00;97630.19;5234452;27;20011;-80
2024/04/09 01:15:26;;;;;;;18.23;3.33;;;;;;;16.94;100.00;97644.41;5228171;27;19996;-80
2024/04/09 01:17:51;;;;;;;26.73;3.53;;;;;;;16.84;100.00;97635.09;5231925;27;20000;-81
2024/04/09 01:20:16;;;;;;;36.75;3.85;;;;;;;16.62;100.00;97609.94;5224512;27;19996;-81
2024/04/09 01:22:43;;;;;;;24.70;3.15;;;;;;;16.62;100.00;97637.25;5229387;27;20004;-81
2024/04/09 01:25:10;;;;;;;22.27;4.22;;;;;;;16.58;100.00;97631.53;5226928;27;20000;-80
2024/04/09 01:27:41;;;;;;;21.50;4.15;;;;;;;16.57;100.00;97620.88;5224809;27;20002;-81
2024/04/09 01:30:08;;;;;;;34.00;3.88;;;;;;;16.52;100.00;97605.28;5229989;27;20021;-80
2024/04/09 01:32:36;;;;;;;22.02;3.28;;;;;;;16.50;100.00;97618.38;5225475;27;19996;-81
2024/04/09 01:35:06;;;;;;;29.27;3.97;;;;;;;16.39;100.00;97638.56;5236199;27;20031;-81
2024/04/09 01:37:34;;;;;;;34.10;4.05;;;;;;;16.28;100.00;97621.34;5220670;27;20012;-81
2024/04/09 01:40:00;;;;;;;33.78;2.90;;;;;;;16.24;100.00;97611.25;5243158;27;20003;-80
2024/04/09 01:42:25;;;;;;;21.75;3.35;;;;;;;16.40;100.00;97630.13;5231847;27;20000;-81
2024/04/09 01:44:50;;;;;;;26.92;3.75;;;;;;;16.43;100.00;97632.31;5237348;27;19996;-80
2024/04/09 01:47:16;;;;;;;31.67;3.30;;;;;;;16.24;100.00;97598.41;5227155;27;20163;-81
2024/04/09 01:49:41;;;;;;;20.13;3.20;;;;;;;16.26;100.00;97614.53;5239859;27;20004;-81
2024/04/09 01:52:08;;;;;;;20.98;3.83;;;;;;;16.35;100.00;97637.50;5226221;27;20010;-80
2024/04/09 01:54:34;;;;;;;24.75;3.28;;;;;;;16.40;100.00;97629.28;5222280;27;20004;-81
2024/04/09 01:56:59;;;;;;;29.67;3.97;;;;;;;16.52;100.00;97631.78;5223987;27;20053;-80
2024/04/09 01:59:24;;;;;;;23.80;3.88;;;;;;;16.51;100.00;97641.06;5228578;27;19998;-80
2024/04/09 02:01:50;;;;;;;27.50;3.38;;;;;;;16.42;100.00;97627.94;5216241;27;19992;-81
2024/04/09 02:04:15;;;;;;;20.30;2.83;;;;;;;16.41;100.00;97634.47;5232729;27;20000;-80
2024/04/09 02:06:42;;;;;;;17.05;3.33;;;;;;;16.22;100.00;97611.53;5222268;27;20255;-81
2024/04/09 02:09:09;;;;;;;21.05;4.30;;;;;;;16.33;100.00;97640.47;5235138;27;19992;-81
2024/04/09 02:11:34;;;;;;;21.88;3.53;;;;;;;16.37;100.00;97621.63;5239402;27;20216;-81
2024/04/09 02:14:00;;;;;;;29.38;3.67;;;;;;;16.29;100.00;97625.72;5223061;27;20026;-81
2024/04/09 02:16:26;;;;;;;31.02;3.97;;;;;;;16.19;100.00;97628.41;5234934;27;19991;-80
2024/04/09 02:18:52;;;;;;;27.10;3.65;;;;;;;16.15;100.00;97616.41;5232436;27;19999;-81
2024/04/09 02:21:20;;;;;;;34.17;3.70;;;;;;;16.01;100.00;97599.72;5225215;27;20015;-81
2024/04/09 02:23:51;;;;;;;28.35;3.58;;;;;;;16.14;100.00;97650.25;5224026;27;19995;-80
2024/04/09 02:26:16;;;;;;;26.77;4.45;;;;;;;16.10;100.00;97630.03;5225105;27;20051;-81
2024/04/09 02:28:42;;;;;;;28.30;3.38;;;;;;;16.00;100.00;97645.25;5227334;27;20003;-80
2024/04/09 02:31:07;;;;;;;22.50;3.28;;;;;;;15.95;100.00;97664.34;5230287;27;20124;-81
2024/04/09 02:33:33;;;;;;;23.05;3.25;;;;;;;15.89;100.00;97662.69;5232177;27;20003;-80
2024/04/09 02:36:01;;;;;;;23.75;3.30;;;;;;;15.75;100.00;97645.19;5230380;27;20011;-81
2024/04/09 02:38:28;;;;;;;16.02;2.92;;;;;;;15.75;100.00;97656.09;5236761;27;19999;-80
2024/04/09 02:40:54;;;;;;;24.58;3.88;;;;;;;15.64;100.00;97644.28;5232474;27;20204;-81
2024/04/09 02:43:21;;;;;;;26.23;4.03;;;;;;;15.58;100.00;97634.41;5223779;27;20065;-81
2024/04/09 02:45:46;;;;;;;19.45;4.03;;;;;;;15.67;100.00;97657.38;5220640;27;20227;-80
2024/04/09 02:48:12;;;;;;;21.60;3.95;;;;;;;15.69;100.00;97652.50;5233978;27;19996;-81
2024/04/09 02:50:37;;;;;;;28.27;4.57;;;;;;;15.49;100.00;97638.72;5232183;27;20004;-81
2024/04/09 02:53:03;;;;;;;24.58;4.10;;;;;;;15.55;100.00;97640.41;5221716;27;19996;-80
2024/04/09 02:55:28;;;;;;;32.00;4.47;;;;;;;15.51;100.00;97645.56;5231337;27;19996;-81
2024/04/09 02:57:54;;;;;;;22.90;3.85;;;;;;;15.41;100.00;97637.31;5233257;27;20006;-81
2024/04/09 03:00:19;;;;;;;25.40;4.10;;;;;;;15.47;100.00;97647.16;5239888;27;19992;-81
2024/04/09 03:02:52;;;;;;;23.45;3.92;;;;;;;15.34;100.00;97642.16;5239779;27;20203;-81
2024/04/09 03:05:28;;;;;;;22.38;4.07;;;;;;;15.30;100.00;97660.13;5226446;27;20000;-79
2024/04/09 03:07:53;;;;;;;37.72;4.18;;;;;;;15.16;100.00;97648.84;5247410;27;19995;-76
2024/04/09 03:10:18;;;;;;;28.45;5.13;;;;;;;15.11;100.00;97665.16;5219391;27;20020;-75
2024/04/09 03:12:44;;;;;;;19.70;3.45;;;;;;;15.00;100.00;97672.44;5223757;27;20000;-74
2024/04/09 03:15:09;;;;;;;24.33;3.38;;;;;;;14.77;100.00;97703.53;5226040;27;20046;-74
2024/04/09 03:17:35;;;;;;;21.02;3.55;;;;;;;14.68;100.00;97715.97;5228017;27;20257;-74
2024/04/09 03:20:00;;;;;;;20.42;3.13;;;;;;;14.47;100.00;97718.44;5234292;27;19996;-74
2024/04/09 03:22:25;;;;;;;17.63;3.55;;;;;;;14.38;100.00;97730.03;5234035;27;19992;-74
2024/04/09 03:24:51;;;;;;;26.85;4.10;;;;;;;14.38;100.00;97744.47;5227641;27;19999;-74
2024/04/09 03:27:16;;;;;;;24.02;3.95;;;;;;;14.03;100.00;97685.00;5220056;27;20006;-75
2024/04/09 03:29:41;;;;;;;31.30;3.25;;;;;;;14.39;100.00;97721.63;5223055;27;20047;-74
2024/04/09 03:32:06;;;;;;;20.90;3.22;;;;;;;14.53;100.00;97678.53;5231412;27;20101;-75
2024/04/09 03:34:33;;;;;;;27.55;3.60;;;;;;;14.93;100.00;97728.19;5235296;27;19992;-75
2024/04/09 03:36:59;;;;;;;22.55;3.25;;;;;;;14.74;100.00;97722.31;5226585;27;20001;-74
2024/04/09 03:39:25;;;;;;;22.85;2.97;;;;;;;14.66;100.00;97718.94;5241847;27;19999;-75
2024/04/09 03:41:50;;;;;;;28.75;4.35;;;;;;;14.69;100.00;97737.50;5228532;27;20211;-76
2024/04/09 03:44:15;;;;;;;28.25;3.38;;;;;;;14.50;100.00;97722.56;5241102;27;20007;-77
2024/04/09 03:46:41;;;;;;;28.88;4.05;;;;;;;14.39;100.00;97699.03;5222420;27;20011;-77
2024/04/09 03:49:07;;;;;;;24.05;4.10;;;;;;;14.58;100.00;97740.38;5223521;27;19996;-77
2024/04/09 03:51:32;;;;;;;18.30;3.80;;;;;;;14.45;100.00;97734.22;5229486;27;20219;-78
2024/04/09 03:53:58;;;;;;;24.10;3.60;;;;;;;14.53;100.00;97734.88;5228879;27;19995;-76
2024/04/09 03:56:24;;;;;;;24.88;3.67;;;;;;;14.77;100.00;97738.13;5226984;27;20008;-77
2024/04/09 03:58:52;;;;;;;27.67;3.67;;;;;;;14.82;100.00;97751.78;5216496;27;20000;-77
2024/04/09 04:01:17;;;;;;;27.20;3.47;;;;;;;14.79;100.00;97768.63;5221866;27;20043;-75
2024/04/09 04:03:48;;;;;;;22.40;3.60;;;;;;;14.69;100.00;97783.78;5234556;27;20007;-75
2024/04/09 04:06:13;;;;;;;21.05;3.35;;;;;;;14.47;100.00;97764.72;5227409;27;20262;-76
2024/04/09 04:08:40;;;;;;;20.58;3.53;;;;;;;14.35;100.00;97772.19;5214715;27;20004;-76
2024/04/09 04:11:09;;;;;;;25.52;3.65;;;;;;;14.33;100.00;97781.66;5220934;27;20304;-76
2024/04/09 04:13:35;;;;;;;33.67;4.63;;;;;;;14.35;100.00;97796.66;5228818;27;20000;-75
2024/04/09 04:16:12;;;;;;;27.63;4.13;;;;;;;14.29;100.00;97772.38;5230623;27;20008;-74
2024/04/09 04:18:39;;;;;;;31.35;4.28;;;;;;;14.20;100.00;97763.81;5227338;27;20019;-75
2024/04/09 04:21:06;;;;;;;29.38;4.63;;;;;;;14.21;100.00;97771.75;5225293;27;19996;-73
2024/04/09 04:23:31;;;;;;;21.25;4.13;;;;;;;14.08;100.00;97791.16;5234744;27;20049;-73
2024/04/09 04:26:06;;;;;;;21.98;4.30;;;;;;;14.04;100.00;97806.31;5226775;27;20231;-74
2024/04/09 04:28:37;;;;;;;27.52;4.22;;;;;;;14.24;100.00;97816.66;5232003;27;20007;-75
2024/04/09 04:31:32;;;;;;;19.92;4.68;;;;;;;14.03;100.00;97810.94;5236283;27;20077;-76
2024/04/09 04:33:57;;;;;;;18.65;3.40;;;;;;;13.97;100.00;97813.84;5240528;27;19998;-76
2024/04/09 04:36:23;;;;;;;19.52;3.33;;;;;;;13.77;100.00;97790.69;5228117;27;19991;-76
2024/04/09 04:38:49;;;;;;;24.10;4.25;;;;;;;13.96;100.00;97825.78;5235663;27;20026;-76
2024/04/09 04:41:14;;;;;;;27.08;4.97;;;;;;;13.86;100.00;97807.44;5222187;27;20007;-76
2024/04/09 04:43:40;;;;;;;23.65;3.10;;;;;;;13.87;100.00;97828.09;5231688;27;20127;-76
2024/04/09 04:46:09;;;;;;;31.15;3.55;;;;;;;13.91;100.00;97839.28;5221452;27;20215;-75
2024/04/09 04:48:35;;;;;;;21.92;3.92;;;;;;;13.86;100.00;97834.63;5219893;27;20055;-78
2024/04/09 04:51:01;;;;;;;30.52;4.18;;;;;;;13.92;100.00;97871.69;5224192;27;20008;-74
2024/04/09 04:53:27;;;;;;;24.02;4.22;;;;;;;13.65;100.00;97838.06;5234109;27;20122;-77
2024/04/09 04:55:53;;;;;;;27.52;4.05;;;;;;;13.77;100.00;97880.41;5218913;27;19992;-76
2024/04/09 04:58:21;;;;;;;26.85;4.07;;;;;;;13.80;100.00;97870.94;5240656;27;19998;-76
2024/04/09 05:00:47;;;;;;;21.40;3.45;;;;;;;13.90;100.00;97889.31;5243107;27;20235;-75
2024/04/09 05:03:13;;;;;;;24.92;3.17;;;;;;;13.72;100.00;97847.69;5229499;27;20134;-76
2024/04/09 05:05:38;;;;;;;17.90;3.75;;;;;;;13.95;100.00;97908.44;5222192;27;20000;-77
2024/04/09 05:08:04;;;;;;;24.75;3.88;;;;;;;13.76;100.00;97877.94;5216293;27;19996;-75
2024/04/09 05:10:30;;;;;;;19.05;3.50;;;;;;;13.81;100.00;97872.59;5220862;27;19999;-76
2024/04/09 05:12:56;;;;;;;17.98;3.50;;;;;;;13.91;100.00;97882.78;5233235;27;20214;-77
2024/04/09 05:15:22;;;;;;;25.58;4.53;;;;;;;14.22;100.00;97879.47;5227078;27;20002;-77
2024/04/09 05:17:49;;;;;;;20.30;3.78;;;;;;;14.42;100.00;97927.94;5230245;27;20000;-78
2024/04/09 05:20:16;;;;;;;26.58;3.47;;;;;;;14.47;100.00;97929.91;5210043;27;20087;-74
2024/04/09 05:22:44;;;;;;;16.65;3.38;;;;;;;14.68;100.00;97934.59;5220540;27;19995;-76
2024/04/09 05:25:10;;;;;;;20.13;3.03;;;;;;;14.66;100.00;97906.78;5233303;27;20008;-80
2024/04/09 05:27:35;;;;;;;26.88;4.65;;;;;;;14.95;100.00;97936.59;5223305;27;20011;-80
2024/04/09 05:30:01;;;;;;;21.63;4.10;;;;;;;15.11;100.00;97949.31;5234108;27;20015;-68
2024/04/09 05:32:28;;;;;;;22.60;3.38;;;;;;;15.26;100.00;97939.69;5220777;27;20004;-79
2024/04/09 05:34:53;;;;;;;14.68;3.08;;;;;;;15.29;100.00;97936.44;5231263;27;20044;-77
2024/04/09 05:37:19;;;;;;;14.52;3.00;;;;;;;15.48;100.00;97950.56;5228769;27;20012;-79
2024/04/09 05:39:46;;;;;;;23.75;3.25;;;;;;;15.79;100.00;97979.00;5231571;27;20104;-79
2024/04/09 05:42:12;;;;;;;19.20;3.55;;;;;;;15.78;100.00;97964.53;5234904;27;20269;-81
2024/04/09 05:44:37;;;;;;;29.40;4.75;;;;;;;15.94;100.00;97965.50;5235815;27;20004;-80
2024/04/09 05:47:03;;;;;;;22.70;3.40;;;;;;;16.39;100.00;98002.47;5234310;27;20019;-79
2024/04/09 05:49:28;;;;;;;21.52;2.75;;;;;;;16.51;100.00;97979.63;5232387;27;20103;-79
2024/04/09 05:51:53;;;;;;;14.55;2.10;;;;;;;17.02;100.00;97997.19;5229341;27;20039;-78
2024/04/09 05:54:19;;;;;;;10.40;1.55;;;;;;;17.48;100.00;98000.16;5240858;27;20059;-79
2024/04/09 05:56:48;;;;;;;8.30;1.42;;;;;;;17.90;100.00;98006.59;5236551;27;20003;-79
2024/04/09 05:59:14;;;;;;;4.47;1.27;;;;;;;18.10;100.00;98012.09;5220003;27;20008;-78
2024/04/09 06:01:39;;;;;;;7.55;1.42;;;;;;;18.20;100.00;98032.38;5227721;27;20157;-78
2024/04/09 06:04:05;;;;;;;8.18;1.52;;;;;;;18.56;100.00;98016.78;5233698;27;20111;-79
2024/04/09 06:06:30;;;;;;;6.20;1.20;;;;;;;18.62;100.00;98000.03;5226532;27;19995;-79
2024/04/09 06:08:56;;;;;;;9.07;1.20;;;;;;;18.84;100.00;98009.94;5227324;27;20012;-80
2024/04/09 06:11:23;;;;;;;8.05;1.40;;;;;;;19.06;100.00;98017.84;5223047;27;20003;-77
2024/04/09 06:13:52;;;;;;;9.43;1.17;;;;;;;19.05;100.00;98018.94;5231502;27;20001;-76
2024/04/09 06:16:18;;;;;;;8.82;1.52;;;;;;;19.03;100.00;98030.19;5217658;27;20010;-77
2024/04/09 06:18:43;;;;;;;6.15;0.90;;;;;;;19.18;100.00;98039.47;5227324;27;19996;-77
2024/04/09 06:21:08;;;;;;;9.88;1.35;;;;;;;19.19;100.00;98046.59;5236964;27;20195;-80
2024/04/09 06:23:34;;;;;;;5.32;1.05;;;;;;;19.11;100.00;98044.44;5237786;27;20050;-81
2024/04/09 06:25:59;;;;;;;5.47;1.17;;;;;;;18.96;100.00;98056.22;5228573;27;20000;-81
2024/04/09 06:28:25;;;;;;;9.15;1.40;;;;;;;19.55;100.00;98062.97;5227126;27;19999;-82
2024/04/09 06:30:50;;;;;;;6.18;1.20;;;;;;;19.69;100.00;98042.06;5234376;27;20059;-78
2024/04/09 06:33:15;;;;;;;7.65;1.27;;;;;;;20.35;100.00;98057.34;5227838;27;19996;-79
2024/04/09 06:35:40;;;;;;;6.28;0.95;;;;;;;20.16;100.00;98064.63;5233210;27;20008;-78
2024/04/09 06:38:06;;;;;;;5.57;1.00;;;;;;;20.87;100.00;98066.03;5221494;27;20007;-78
2024/04/09 06:40:32;;;;;;;7.47;1.13;;;;;;;21.90;100.00;98074.84;5232213;27;20014;-80
2024/04/09 06:42:58;;;;;;;11.88;0.98;;;;;;;22.86;100.00;98082.81;5229489;27;20004;-79
2024/04/09 06:45:23;;;;;;;10.95;1.42;;;;;;;22.70;100.00;98051.94;5238358;27;20352;-80
2024/04/09 06:47:48;;;;;;;3.25;0.93;;;;;;;22.90;100.00;98081.13;5229460;27;20000;-80
2024/04/09 06:50:15;;;;;;;6.03;0.88;;;;;;;22.65;100.00;98092.56;5231607;27;19999;-78
2024/04/09 06:52:41;;;;;;;8.73;1.52;;;;;;;21.34;100.00;98092.81;5224872;27;19999;-79
2024/04/09 06:55:06;;;;;;;4.57;1.27;;;;;;;22.33;100.00;98085.88;5225148;27;20010;-79
2024/04/09 06:57:31;;;;;;;9.60;1.10;;;;;;;21.49;100.00;98066.28;5232609;27;19999;-79
2024/04/09 06:59:57;;;;;;;7.68;0.93;;;;;;;21.94;100.00;98106.19;5240838;27;20219;-79
2024/04/09 07:02:22;;;;;;;6.03;1.10;;;;;;;22.61;100.00;98088.75;5229124;27;20006;-79
2024/04/09 07:04:48;;;;;;;9.23;1.30;;;;;;;21.19;100.00;98084.69;5230210;27;20007;-78
2024/04/09 07:07:14;;;;;;;8.65;1.40;;;;;;;21.02;100.00;98080.47;5223683;27;20212;-78
2024/04/09 07:09:39;;;;;;;7.20;1.13;;;;;;;20.36;100.00;98123.00;5231398;27;20063;-78
2024/04/09 07:12:05;;;;;;;7.80;1.30;;;;;;;19.45;100.00;98132.38;5244992;27;20006;-78
2024/04/09 07:14:30;;;;;;;7.00;0.93;;;;;;;18.44;100.00;98128.53;5234299;27;19995;-78
2024/04/09 07:16:55;;;;;;;8.40;1.10;;;;;;;18.31;100.00;98113.44;5232734;27;20011;-78
2024/04/09 07:19:20;;;;;;;8.30;0.93;;;;;;;18.51;100.00;98138.13;5240075;27;20027;-76
2024/04/09 07:21:46;;;;;;;5.63;1.42;;;;;;;18.12;100.00;98154.19;5218788;27;20006;-79
2024/04/09 07:24:11;;;;;;;10.77;1.15;;;;;;;17.70;100.00;98149.56;5239816;27;20006;-80
2024/04/09 07:26:36;;;;;;;8.90;1.58;;;;;;;17.53;100.00;98127.91;5232767;27;20097;-79
2024/04/09 07:29:02;;;;;;;7.50;1.52;;;;;;;17.25;100.00;98143.56;5230240;27;20091;-79
2024/04/09 07:31:27;;;;;;;7.97;1.30;;;;;;;17.23;100.00;98132.06;5235235;27;20044;-79
2024/04/09 07:33:53;;;;;;;8.57;1.10;;;;;;;17.29;100.00;98141.13;5234641;27;20010;-78
2024/04/09 07:36:18;;;;;;;4.68;1.38;;;;;;;17.02;100.00;98146.66;5235730;27;19999;-80
2024/04/09 07:38:43;;;;;;;2.80;0.73;;;;;;;17.36;100.00;98149.94;5240071;27;20006;-79
2024/04/09 07:41:09;;;;;;;8.10;1.00;;;;;;;17.39;100.00;98148.56;5227238;27;20055;-77
2024/04/09 07:43:34;;;;;;;4.72;1.00;;;;;;;17.46;100.00;98150.00;5230194;27;20006;-76
2024/04/09 07:46:00;;;;;;;3.45;0.80;;;;;;;17.52;100.00;98175.47;5230833;27;20012;-77
2024/04/09 07:48:26;;;;;;;5.20;1.00;;;;;;;17.06;100.00;98191.53;5229966;27;20062;-77
2024/04/09 07:50:52;;;;;;;5.20;1.00;;;;;;;16.60;100.00;98211.00;5226578;27;20003;-77
2024/04/09 07:53:19;;;;;;;3.22;0.80;;;;;;;16.68;100.00;98214.38;5221128;27;20015;-77
2024/04/09 07:55:44;;;;;;;4.00;0.82;;;;;;;16.42;100.00;98227.72;5219296;27;20190;-77
2024/04/09 07:58:11;;;;;;;5.95;0.63;;;;;;;15.37;100.00;98196.84;5220138;27;20003;-78
2024/04/09 08:00:36;;;;;;;11.38;1.65;;;;;;;15.10;100.00;98222.03;5235120;27;20021;-77
2024/04/09 08:03:02;;;;;;;3.45;0.38;;;;;;;14.95;100.00;98268.88;5227445;27;20004;-76
2024/04/09 08:05:28;;;;;;;6.32;0.90;;;;;;;14.60;100.00;98264.44;5226654;27;19996;-77
2024/04/09 08:07:55;;;;;;;2.67;0.80;;;;;;;14.45;100.00;98258.66;5232053;27;20044;-77
2024/04/09 08:10:21;;;;;;;2.13;0.40;;;;;;;14.67;100.00;98308.69;5228698;27;19992;-74
2024/04/09 08:12:49;;;;;;;4.35;0.50;;;;;;;14.36;100.00;98325.44;5226891;27;20010;-75
2024/04/09 08:15:18;;;;;;;0.73;0.32;;;;;;;13.97;100.00;98287.84;5231794;27;20144;-75
2024/04/09 08:17:44;;;;;;;1.65;0.30;;;;;;;13.93;100.00;98299.44;5233430;27;20138;-75
2024/04/09 08:20:10;;;;;;;0.90;0.20;;;;;;;13.93;100.00;98318.47;5229297;27;20030;-75
2024/04/09 08:22:42;;;;;;;1.05;0.30;;;;;;;13.97;100.00;98333.28;5233429;27;20185;-74
2024/04/09 08:25:08;;;;;;;0.63;0.20;;;;;;;13.94;100.00;98295.69;5229516;27;20011;-75
2024/04/09 08:27:38;;;;;;;0.10;0.00;;;;;;;13.93;100.00;98313.03;5225917;27;20104;-75
2024/04/09 08:30:08;;;;;;;0.60;0.10;;;;;;;14.00;100.00;98339.06;5229422;27;20004;-75
2024/04/09 08:32:34;;;;;;;3.83;0.25;;;;;;;13.86;100.00;98315.03;5229434;27;20175;-75
2024/04/09 08:35:00;;;;;;;1.75;0.10;;;;;;;13.87;100.00;98369.22;5225850;27;20137;-75
2024/04/09 08:37:25;;;;;;;0.13;0.13;;;;;;;13.80;100.00;98365.75;5233363;27;20014;-74
2024/04/09 08:39:55;;;;;;;1.00;0.10;;;;;;;13.91;100.00;98391.31;5221456;27;20004;-73
2024/04/09 08:42:30;;;;;;;0.20;0.10;;;;;;;13.58;100.00;98368.22;5218854;27;20016;-74
2024/04/09 08:44:57;;;;;;;0.13;0.08;;;;;;;13.82;100.00;98407.16;5225316;27;20003;-74
2024/04/09 08:47:24;;;;;;;6.20;0.20;;;;;;;14.15;100.00;98409.31;5236721;27;20011;-74
2024/04/09 08:49:50;;;;;;;1.67;0.30;;;;;;;13.72;100.00;98423.19;5220414;27;20004;-74
2024/04/09 08:52:19;;;;;;;0.47;0.10;;;;;;;13.71;100.00;98438.69;5222018;27;20047;-73
2024/04/09 08:54:44;;;;;;;1.92;0.20;;;;;;;13.60;100.00;98447.66;5223700;27;20220;-74
2024/04/09 08:57:09;;;;;;;4.32;0.20;;;;;;;13.41;100.00;98446.03;5221449;27;20004;-73
2024/04/09 08:59:36;;;;;;;0.10;0.08;;;;;;;13.25;100.00;98466.47;5222633;27;20012;-73
2024/04/09 09:02:13;;;;;;;0.22;0.10;;;;;;;13.27;100.00;98484.25;5227490;27;20083;-73
2024/04/09 09:04:39;;;;;;;0.98;0.20;;;;;;;12.83;100.00;98456.31;5222602;27;20006;-74
2024/04/09 09:07:19;;;;;;;2.95;0.20;;;;;;;13.00;100.00;98485.63;5291966;21;20054;-76
2024/04/09 09:09:46;;;;;;;3.60;0.20;;;;;;;12.67;100.00;98478.66;5231241;27;20156;-76
2024/04/09 09:12:13;;;;;;;0.68;0.20;;;;;;;12.04;100.00;98407.25;5225551;27;20048;-76
2024/04/09 09:14:48;;;;;;;1.40;0.22;;;;;;;12.41;100.00;98477.84;5226375;27;19995;-75
2024/04/09 09:17:14;;;;;;;2.40;0.10;;;;;;;11.92;100.00;98408.19;5220116;27;19995;-76
2024/04/09 09:19:40;;;;;;;2.95;0.20;;;;;;;12.69;100.00;98500.97;5229372;27;20006;-76
2024/04/09 09:22:09;;;;;;;0.57;0.20;;;;;;;12.67;100.00;98511.22;5223952;27;20000;-76
2024/04/09 09:24:35;;;;;;;3.63;0.30;;;;;;;11.94;100.00;98431.31;5221221;27;20007;-76
2024/04/09 09:27:02;;;;;;;3.33;0.30;;;;;;;11.91;100.00;98428.25;5228854;27;20014;-75
2024/04/09 09:29:28;;;;;;;0.30;0.10;;;;;;;11.84;100.00;98458.06;5208117;27;20061;-76
2024/04/09 09:31:54;;;;;;;0.22;0.10;;;;;;;11.87;100.00;98463.09;5251333;27;19991;-75
2024/04/09 09:34:43;;;;;;;2.00;0.08;;;;;;;12.04;100.00;98463.38;5229884;27;20268;-76
2024/04/09 09:37:10;;;;;;;3.30;0.17;;;;;;;12.13;100.00;98502.75;5212428;27;19996;-76
2024/04/09 09:39:39;;;;;;;1.50;0.20;;;;;;;11.83;100.00;98448.28;5213690;27;20012;-75
2024/04/09 09:42:05;;;;;;;0.28;0.10;;;;;;;11.83;100.00;98524.19;5217394;27;19996;-76
2024/04/09 09:44:38;;;;;;;0.45;0.20;;;;;;;11.79;100.00;98522.97;5220786;27;19996;-76
2024/04/09 09:47:05;;;;;;;0.95;0.25;;;;;;;11.74;100.00;98523.63;5220371;27;20010;-76
2024/04/09 09:49:30;;;;;;;0.20;0.10;;;;;;;11.93;100.00;98562.53;5243114;27;20003;-76
2024/04/09 09:51:56;;;;;;;2.38;0.38;;;;;;;11.70;100.00;98500.69;5221409;27;20204;-75
2024/04/09 09:54:23;;;;;;;0.28;0.20;;;;;;;11.66;100.00;98528.44;5230704;27;20033;-76
2024/04/09 09:56:52;;;;;;;0.73;0.20;;;;;;;11.69;100.00;98579.53;5216642;27;20006;-76
2024/04/09 09:59:20;;;;;;;2.00;0.20;;;;;;;11.62;100.00;98569.53;5220726;27;20006;-76
2024/04/09 10:01:50;;;;;;;2.55;0.30;;;;;;;11.28;100.00;98521.97;5233865;27;20146;-76
2024/04/09 10:04:16;;;;;;;2.58;0.45;;;;;;;11.67;100.00;98568.06;5223972;27;20004;-75
2024/04/09 10:06:42;;;;;;;1.30;0.30;;;;;;;11.88;100.00;98592.16;5216670;27;19991;-76
2024/04/09 10:09:07;;;;;;;1.83;0.40;;;;;;;11.58;100.00;98575.59;5228396;27;20000;-76
2024/04/09 10:11:43;;;;;;;1.00;0.22;;;;;;;11.44;100.00;98591.06;5223405;27;20216;-76
2024/04/09 10:14:08;;;;;;;1.95;0.45;;;;;;;11.14;100.00;98610.53;5226846;27;20035;-76
2024/04/09 10:16:34;;;;;;;1.83;0.30;;;;;;;11.12;100.00;98620.75;5232479;27;20003;-77
2024/04/09 10:18:59;;;;;;;1.65;0.30;;;;;;;11.80;100.00;98676.41;5234405;27;20000;-76
2024/04/09 10:21:29;;;;;;;1.05;0.25;;;;;;;11.22;100.00;98592.41;5238604;27;19995;-75
2024/04/09 10:24:03;;;;;;;0.65;0.20;;;;;;;12.01;100.00;98691.56;5229209;27;20132;-75
2024/04/09 10:26:30;;;;;;;0.35;0.10;;;;;;;11.52;100.00;98627.94;5212526;27;20024;-75
2024/04/09 10:29:03;;;;;;;0.35;0.13;;;;;;;12.03;100.00;98692.19;5234042;27;20227;-75
2024/04/09 10:31:30;;;;;;;1.80;0.30;;;;;;;11.32;100.00;98638.84;5223144;27;20035;-75
2024/04/09 10:33:59;;;;;;;2.20;0.10;;;;;;;11.70;100.00;98682.28;5223348;27;20326;-75
2024/04/09 10:36:27;;;;;;;1.27;0.20;;;;;;;11.81;100.00;98702.47;5216650;27;20016;-75
2024/04/09 10:38:53;;;;;;;2.05;0.30;;;;;;;11.96;100.00;98688.69;5227149;27;20031;-75
2024/04/09 10:41:19;;;;;;;0.85;0.20;;;;;;;11.99;100.00;98718.91;5233416;27;20204;-76
2024/04/09 10:43:44;;;;;;;2.83;0.40;;;;;;;11.72;100.00;98679.34;5223266;27;20000;-75
2024/04/09 10:46:11;;;;;;;4.82;0.20;;;;;;;11.88;100.00;98706.00;5226319;27;19992;-75
2024/04/09 10:48:39;;;;;;;1.70;0.60;;;;;;;11.67;100.00;98606.00;5227147;27;19996;-75
2024/04/09 10:51:06;;;;;;;3.28;0.28;;;;;;;12.15;100.00;98697.75;5223232;27;20155;-75
2024/04/09 10:53:34;;;;;;;0.68;0.10;;;;;;;11.94;100.00;98666.38;5223581;27;20015;-75
2024/04/09 10:56:01;;;;;;;1.17;0.30;;;;;;;11.97;100.00;98714.72;5229733;27;20113;-76
2024/04/09 10:58:26;;;;;;;1.42;0.30;;;;;;;12.23;100.00;98709.19;5227121;27;20015;-75
2024/04/09 11:00:52;;;;;;;0.40;0.20;;;;;;;12.27;100.00;98691.44;5236612;27;20010;-75
2024/04/09 11:03:21;;;;;;;3.42;0.63;;;;;;;11.62;100.00;98642.69;5228297;27;20107;-76
2024/04/09 11:06:05;;;;;;;1.48;0.30;;;;;;;11.52;100.00;98677.53;5232634;27;20004;-80
2024/04/09 11:08:31;;;;;;;0.52;0.20;;;;;;;12.25;100.00;98736.94;5250084;22;20013;-55
2024/04/09 11:11:00;;;;;;;2.58;0.20;;;;;;;12.06;100.00;98737.88;5232832;27;20077;-55
2024/04/09 11:13:26;;;;;;;0.73;0.30;;;;;;;11.81;100.00;98740.41;5237905;27;20007;-55
2024/04/09 11:15:52;;;;;;;0.20;0.10;;;;;;;11.41;100.00;98749.44;5229950;27;20011;-55
2024/04/09 11:18:20;;;;;;;1.33;0.30;;;;;;;11.80;100.00;98755.84;5210252;27;20083;-55
2024/04/09 11:21:05;;;;;;;3.30;0.40;;;;;;;11.99;100.00;98778.53;5208552;27;20003;-54